Time;durP1;ratioP1;P1;durP2;ratioP2;P2;SDS_P1;SDS_P2;PMS_P1;PMS_P2;Temp;Humidity;BMP_temperature;BMP_pressure;BME280_temperature;BME280_humidity;BME280_pressure;Samples;Min_cycle;Max_cycle;Signal;HPM_P1;HPM_P2
2023/05/13 00:00:23;;;;;;;;;11.80;11.80;;;;;15.78;41.79;99179.09;5973459;29;97038;-66
2023/05/13 00:03:27;;;;;;;;;12.00;11.00;;;;;15.70;41.95;99169.44;5973118;29;97001;-66
2023/05/13 00:06:31;;;;;;;;;14.40;13.40;;;;;15.70;41.99;99174.88;5973354;29;96911;-65
2023/05/13 00:09:34;;;;;;;;;14.60;14.40;;;;;15.67;41.87;99166.41;5972312;29;96567;-65
2023/05/13 00:12:37;;;;;;;;;13.00;13.00;;;;;15.64;41.76;99169.63;5973061;29;96485;-66
2023/05/13 00:15:42;;;;;;;;;11.50;10.00;;;;;15.56;42.04;99166.25;5956412;29;98624;-66
2023/05/13 00:18:45;;;;;;;;;12.00;10.00;;;;;15.58;42.24;99174.97;5973139;29;96484;-65
2023/05/13 00:21:48;;;;;;;;;8.75;8.00;;;;;15.58;42.06;99169.53;5956277;29;96715;-65
2023/05/13 00:24:52;;;;;;;;;9.60;9.00;;;;;15.57;42.19;99165.19;5972982;29;96678;-65
2023/05/13 00:27:55;;;;;;;;;11.00;9.60;;;;;15.58;42.17;99164.13;5972859;29;98115;-65
2023/05/13 00:31:00;;;;;;;;;13.60;12.60;;;;;15.59;42.15;99183.94;5975139;29;96344;-65
2023/05/13 00:34:04;;;;;;;;;12.80;11.80;;;;;15.58;42.12;99174.97;5960400;29;96316;-65
2023/05/13 00:37:09;;;;;;;;;11.00;11.00;;;;;15.52;42.31;99178.69;5975674;29;96561;-65
2023/05/13 00:40:20;;;;;;;;;11.00;11.00;;;;;15.54;42.38;99176.53;5975121;29;96292;-66
2023/05/13 00:43:24;;;;;;;;;12.00;11.50;;;;;15.51;42.22;99174.31;5976332;29;96192;-65
2023/05/13 00:46:31;;;;;;;;;13.60;12.60;;;;;15.47;42.53;99184.00;5976479;29;97008;-65
2023/05/13 00:49:34;;;;;;;;;12.00;12.00;;;;;15.27;42.08;99171.94;5976663;29;96188;-65
2023/05/13 00:52:39;;;;;;;;;12.00;11.60;;;;;15.18;43.22;99188.66;5976407;29;96481;-65
2023/05/13 00:55:43;;;;;;;;;12.20;12.00;;;;;15.18;43.17;99191.38;5976519;29;96416;-66
2023/05/13 00:58:46;;;;;;;;;13.00;13.00;;;;;15.13;43.14;99195.88;5974486;29;96399;-64
2023/05/13 01:02:00;;;;;;;;;13.00;12.60;;;;;15.07;43.15;99194.13;5975999;29;96415;-65
2023/05/13 01:05:12;;;;;;;;;13.00;12.00;;;;;15.09;43.13;99197.44;5975133;29;96326;-66
2023/05/13 01:08:25;;;;;;;;;12.40;12.40;;;;;15.03;43.60;99198.41;5958919;29;96857;-64
2023/05/13 01:11:35;;;;;;;;;10.00;9.00;;;;;15.00;43.48;99201.63;5974808;29;96378;-65
2023/05/13 01:14:45;;;;;;;;;10.50;10.00;;;;;14.98;43.72;99198.31;5974583;29;96507;-65
2023/05/13 01:18:00;;;;;;;;;11.40;11.40;;;;;14.99;43.63;99205.41;5958501;29;96711;-65
2023/05/13 01:21:05;;;;;;;;;11.75;11.00;;;;;14.92;43.71;99208.25;5973889;29;96553;-65
2023/05/13 01:24:09;;;;;;;;;14.20;13.40;;;;;14.89;44.06;99208.75;5958636;29;96311;-65
2023/05/13 01:27:14;;;;;;;;;15.00;14.00;;;;;14.82;44.14;99213.47;5958494;29;96800;-65
2023/05/13 01:30:17;;;;;;;;;12.50;11.50;;;;;14.67;44.60;99203.13;5974091;29;96864;-65
2023/05/13 01:33:23;;;;;;;;;12.60;11.60;;;;;14.76;44.27;99206.28;5973357;29;99478;-65
2023/05/13 01:36:27;;;;;;;;;11.00;11.00;;;;;14.65;44.23;99204.44;5974490;29;96531;-66
2023/05/13 01:39:32;;;;;;;;;11.00;9.40;;;;;14.60;44.61;99199.75;5975131;29;96747;-66
2023/05/13 01:42:40;;;;;;;;;12.60;12.00;;;;;14.64;44.50;99211.75;5958330;29;96659;-66
2023/05/13 01:45:43;;;;;;;;;11.20;10.20;;;;;14.64;44.56;99206.34;5974400;29;96407;-66
2023/05/13 01:48:47;;;;;;;;;11.00;10.00;;;;;14.65;44.67;99223.44;5972668;29;96256;-65
2023/05/13 01:51:51;;;;;;;;;11.60;11.00;;;;;14.58;44.95;99214.59;5958817;29;96876;-66
2023/05/13 01:54:56;;;;;;;;;11.20;9.60;;;;;14.45;45.38;99206.72;5975347;29;96396;-65
2023/05/13 01:57:59;;;;;;;;;10.00;10.00;;;;;14.54;45.35;99219.69;5975185;29;96736;-65
2023/05/13 02:01:03;;;;;;;;;17.00;14.00;;;;;14.49;45.73;99218.75;5973814;29;96378;-65
2023/05/13 02:04:06;;;;;;;;;15.00;14.00;;;;;14.40;45.18;99201.19;5974574;29;96281;-65
2023/05/13 02:07:10;;;;;;;;;11.60;9.60;;;;;14.50;45.99;99223.13;5973798;29;97017;-66
2023/05/13 02:10:15;;;;;;;;;11.00;11.00;;;;;14.49;45.48;99216.88;5972927;29;96383;-65
2023/05/13 02:13:18;;;;;;;;;12.60;12.00;;;;;14.53;45.51;99222.63;5974122;29;97399;-66
2023/05/13 02:16:22;;;;;;;;;16.00;14.00;;;;;14.51;45.72;99222.88;5965507;29;96937;-65
2023/05/13 02:19:25;;;;;;;;;13.00;12.50;;;;;14.53;45.69;99228.88;5957710;29;96283;-65
2023/05/13 02:22:28;;;;;;;;;12.20;11.00;;;;;14.43;45.95;99219.69;5957606;29;97331;-65
2023/05/13 02:25:33;;;;;;;;;15.00;13.00;;;;;14.45;45.63;99220.28;5974660;29;96404;-65
2023/05/13 02:28:37;;;;;;;;;12.00;12.00;;;;;14.42;45.93;99220.75;5974688;29;96943;-65
2023/05/13 02:31:41;;;;;;;;;13.00;10.20;;;;;14.42;45.92;99224.28;5971321;29;96466;-67
2023/05/13 02:34:45;;;;;;;;;12.00;11.40;;;;;14.45;45.76;99223.00;5957149;29;96444;-66
2023/05/13 02:37:48;;;;;;;;;12.40;12.00;;;;;14.46;45.60;99224.66;5968591;29;96661;-67
2023/05/13 02:40:54;;;;;;;;;12.20;12.00;;;;;14.48;45.55;99222.53;5958764;29;96885;-67
2023/05/13 02:43:58;;;;;;;;;13.00;12.80;;;;;14.53;45.62;99230.78;5953297;29;96261;-67
2023/05/13 02:47:01;;;;;;;;;14.00;13.00;;;;;14.56;45.76;99224.88;5965324;29;96929;-67
2023/05/13 02:50:08;;;;;;;;;13.00;13.00;;;;;14.55;45.73;99229.47;5972868;29;97977;-66
2023/05/13 02:53:13;;;;;;;;;12.00;12.00;;;;;14.50;46.00;99223.94;5958395;29;96557;-67
2023/05/13 02:56:23;;;;;;;;;12.00;11.60;;;;;14.57;46.17;99231.94;5935722;29;96301;-67
2023/05/13 02:59:27;;;;;;;;;11.60;10.00;;;;;14.64;45.72;99236.19;5950654;29;96745;-66
2023/05/13 03:02:30;;;;;;;;;12.00;12.00;;;;;14.68;45.80;99234.63;5944192;29;96459;-67
2023/05/13 03:05:33;;;;;;;;;15.00;13.00;;;;;14.73;45.92;99242.88;5974017;29;96321;-67
2023/05/13 03:08:37;;;;;;;;;14.75;14.00;;;;;14.78;45.87;99244.06;5957905;29;96987;-67
2023/05/13 03:11:41;;;;;;;;;13.00;12.40;;;;;14.85;45.59;99242.03;5973094;29;96714;-66
2023/05/13 03:14:45;;;;;;;;;15.00;14.00;;;;;14.83;45.61;99249.59;5973446;29;96893;-67
2023/05/13 03:17:49;;;;;;;;;14.00;13.00;;;;;14.80;45.67;99244.66;5970843;29;96477;-67
2023/05/13 03:20:54;;;;;;;;;14.40;12.60;;;;;14.80;45.84;99248.19;5955816;29;98722;-67
2023/05/13 03:23:58;;;;;;;;;14.00;12.40;;;;;14.88;46.41;99249.69;5954644;29;98526;-67
2023/05/13 03:27:02;;;;;;;;;12.00;11.75;;;;;14.96;46.07;99244.69;5971275;29;96361;-67
2023/05/13 03:30:08;;;;;;;;;12.25;12.25;;;;;15.04;46.04;99241.63;5962201;29;96696;-67
2023/05/13 03:33:19;;;;;;;;;12.00;11.00;;;;;15.10;45.75;99254.19;5963191;29;96671;-66
2023/05/13 03:36:22;;;;;;;;;12.00;12.00;;;;;15.17;45.57;99257.63;5936378;29;97222;-66
2023/05/13 03:39:26;;;;;;;;;10.00;9.00;;;;;15.25;45.34;99264.53;5972999;29;96343;-67
2023/05/13 03:42:31;;;;;;;;;12.80;12.00;;;;;15.27;45.53;99272.47;5973280;29;96571;-67
2023/05/13 03:45:37;;;;;;;;;12.40;12.00;;;;;15.25;45.53;99269.97;5972423;29;96801;-66
2023/05/13 03:48:45;;;;;;;;;13.00;13.00;;;;;15.32;45.25;99267.94;5951852;29;96323;-66
2023/05/13 03:51:48;;;;;;;;;11.00;11.00;;;;;15.29;45.42;99259.47;5959613;29;96473;-66
2023/05/13 03:54:52;;;;;;;;;13.33;13.33;;;;;15.37;45.52;99276.19;5973147;29;96451;-67
2023/05/13 03:57:57;;;;;;;;;12.80;12.20;;;;;15.44;45.67;99274.13;5956804;29;96686;-67
2023/05/13 04:01:00;;;;;;;;;10.60;10.60;;;;;15.61;45.69;99266.06;5955047;29;98329;-67
2023/05/13 04:04:04;;;;;;;;;15.00;15.00;;;;;15.78;45.25;99276.97;5974696;29;96449;-67
2023/05/13 04:07:07;;;;;;;;;12.00;11.40;;;;;15.91;45.14;99273.91;5955031;29;96320;-68
2023/05/13 04:10:11;;;;;;;;;10.00;10.00;;;;;15.99;44.71;99276.22;5975010;29;97757;-67
2023/05/13 04:13:19;;;;;;;;;12.00;12.00;;;;;16.11;44.42;99276.97;5967103;29;96237;-67
2023/05/13 04:16:22;;;;;;;;;13.00;13.00;;;;;16.28;44.37;99282.38;5940664;29;97167;-67
2023/05/13 04:19:26;;;;;;;;;15.60;13.60;;;;;16.45;44.16;99280.47;5958921;29;98263;-67
2023/05/13 04:22:29;;;;;;;;;13.00;11.50;;;;;16.65;43.81;99290.84;5966278;29;97280;-68
2023/05/13 04:25:35;;;;;;;;;11.00;11.00;;;;;16.81;43.26;99287.28;5971988;29;96402;-67
2023/05/13 04:28:40;;;;;;;;;13.00;13.00;;;;;17.02;43.07;99288.34;5968976;29;96272;-67
2023/05/13 04:31:43;;;;;;;;;15.00;14.00;;;;;17.22;42.82;99292.13;5951176;29;96339;-66
2023/05/13 04:34:48;;;;;;;;;13.50;13.50;;;;;17.33;42.42;99293.91;5958171;29;96454;-64
2023/05/13 04:37:51;;;;;;;;;16.00;14.40;;;;;17.49;42.20;99302.25;5982463;29;96331;-65
2023/05/13 04:40:55;;;;;;;;;11.00;11.00;;;;;17.53;42.05;99300.66;5977656;29;96290;-65
2023/05/13 04:44:09;;;;;;;;;14.00;14.00;;;;;17.52;42.03;99305.28;5958714;29;97121;-66
2023/05/13 04:47:12;;;;;;;;;13.00;13.00;;;;;17.42;42.04;99290.72;5953247;29;97748;-65
2023/05/13 04:50:16;;;;;;;;;13.00;13.00;;;;;17.45;42.02;99304.63;5971515;29;96952;-65
2023/05/13 04:53:20;;;;;;;;;13.20;12.80;;;;;17.54;42.07;99305.03;5963008;29;96629;-66
2023/05/13 04:56:23;;;;;;;;;11.75;11.00;;;;;17.64;41.72;99310.63;5970313;29;96372;-65
2023/05/13 04:59:29;;;;;;;;;12.60;11.40;;;;;17.70;41.48;99312.28;5969284;29;96967;-66
2023/05/13 05:02:33;;;;;;;;;14.00;14.00;;;;;17.73;41.19;99306.34;5972492;29;97243;-65
2023/05/13 05:05:36;;;;;;;;;12.40;12.00;;;;;17.63;41.66;99304.34;5974627;29;96360;-66
2023/05/13 05:08:40;;;;;;;;;12.33;12.00;;;;;17.66;41.75;99314.72;5960584;29;96806;-64
2023/05/13 05:11:45;;;;;;;;;13.00;12.40;;;;;17.74;41.65;99318.88;5994289;29;96260;-63
2023/05/13 05:14:50;;;;;;;;;14.80;12.80;;;;;17.83;41.53;99313.81;5978482;29;96953;-64
2023/05/13 05:17:54;;;;;;;;;12.50;11.50;;;;;17.91;41.40;99322.34;5962475;29;97329;-64
2023/05/13 05:20:57;;;;;;;;;13.20;12.00;;;;;17.98;41.72;99322.13;5983265;29;96865;-63
2023/05/13 05:24:05;;;;;;;;;13.00;12.40;;;;;18.09;41.34;99321.13;5977888;29;96979;-65
2023/05/13 05:27:09;;;;;;;;;11.80;10.80;;;;;18.17;41.22;99326.13;5979880;29;96983;-65
2023/05/13 05:30:15;;;;;;;;;9.40;8.40;;;;;18.17;40.67;99331.56;5993291;29;96312;-65
2023/05/13 05:33:22;;;;;;;;;11.20;11.00;;;;;18.23;41.27;99329.72;5957190;29;96887;-64
2023/05/13 05:36:26;;;;;;;;;13.00;13.00;;;;;18.25;40.52;99327.53;5972336;29;96648;-65
2023/05/13 05:39:29;;;;;;;;;10.00;10.00;;;;;18.31;41.12;99342.88;5969170;29;96603;-65
2023/05/13 05:42:33;;;;;;;;;9.25;9.00;;;;;18.48;41.00;99335.34;5971799;29;98013;-65
2023/05/13 05:45:39;;;;;;;;;13.40;12.00;;;;;18.66;40.88;99332.25;5958230;29;96712;-64
2023/05/13 05:48:46;;;;;;;;;13.40;12.40;;;;;18.77;40.49;99330.38;5978280;29;97209;-65
2023/05/13 05:51:50;;;;;;;;;11.00;10.00;;;;;18.83;40.43;99327.41;5950274;29;98171;-64
2023/05/13 05:54:55;;;;;;;;;12.50;12.00;;;;;19.09;40.39;99333.03;5974295;29;96961;-64
2023/05/13 05:58:02;;;;;;;;;13.00;12.00;;;;;19.25;40.06;99341.03;5996354;29;96384;-66
2023/05/13 06:01:07;;;;;;;;;12.00;11.60;;;;;19.31;39.50;99339.13;5954660;29;96997;-63
2023/05/13 06:04:11;;;;;;;;;10.00;10.00;;;;;19.40;39.38;99337.53;5978796;29;97551;-65
2023/05/13 06:07:15;;;;;;;;;13.60;13.00;;;;;19.52;39.32;99340.88;5992700;29;97051;-64
2023/05/13 06:10:19;;;;;;;;;10.20;10.20;;;;;19.65;39.33;99345.00;5968281;29;96961;-65
2023/05/13 06:13:23;;;;;;;;;13.00;11.75;;;;;19.74;39.05;99346.94;5985683;29;96281;-66
2023/05/13 06:16:28;;;;;;;;;10.00;10.00;;;;;19.74;39.03;99335.19;5981367;29;97591;-66
2023/05/13 06:19:31;;;;;;;;;12.00;12.00;;;;;19.85;39.09;99347.78;5979367;29;96439;-65
2023/05/13 06:22:34;;;;;;;;;12.00;11.00;;;;;19.96;39.28;99343.97;5960565;29;99666;-66
2023/05/13 06:25:38;;;;;;;;;12.00;12.00;;;;;20.03;38.56;99352.75;5978931;29;96482;-64
2023/05/13 06:28:42;;;;;;;;;12.00;12.00;;;;;20.10;38.45;99347.00;5955699;29;100180;-65
2023/05/13 06:31:46;;;;;;;;;15.00;12.00;;;;;20.25;38.84;99350.56;5954412;29;97666;-62
2023/05/13 06:34:51;;;;;;;;;12.50;11.00;;;;;20.23;37.98;99351.97;5973385;29;96862;-63
2023/05/13 06:37:58;;;;;;;;;10.75;10.00;;;;;20.44;38.62;99350.88;5953280;29;96515;-62
2023/05/13 06:41:02;;;;;;;;;11.00;10.00;;;;;20.49;37.77;99350.03;5948959;29;96531;-62
2023/05/13 06:44:08;;;;;;;;;13.00;11.00;;;;;20.53;37.19;99353.88;5969649;29;96288;-63
2023/05/13 06:47:16;;;;;;;;;12.00;12.00;;;;;20.49;38.61;99350.88;5968136;29;96761;-63
2023/05/13 06:50:19;;;;;;;;;10.25;10.25;;;;;20.69;37.98;99350.84;5951196;29;96357;-62
2023/05/13 06:53:23;;;;;;;;;11.40;10.40;;;;;20.75;37.51;99351.66;5948750;29;96469;-62
2023/05/13 06:56:26;;;;;;;;;10.50;10.00;;;;;20.89;37.65;99349.16;5956953;29;96702;-63
2023/05/13 06:59:30;;;;;;;;;11.60;10.60;;;;;21.04;37.50;99343.66;5974559;29;96494;-63
2023/05/13 07:02:34;;;;;;;;;9.00;8.00;;;;;21.21;37.27;99337.88;5974320;29;96840;-62
2023/05/13 07:05:38;;;;;;;;;8.60;8.00;;;;;21.31;35.96;99327.66;5974495;29;96372;-63
2023/05/13 07:08:42;;;;;;;;;10.00;9.00;;;;;21.57;35.83;99344.81;5973166;29;96600;-62
2023/05/13 07:11:45;;;;;;;;;7.50;7.00;;;;;21.91;36.41;99347.66;5962817;29;96422;-62
2023/05/13 07:14:48;;;;;;;;;8.00;8.00;;;;;22.19;34.23;99348.84;5953743;29;96339;-62
2023/05/13 07:17:53;;;;;;;;;7.00;7.00;;;;;22.29;33.57;99344.09;5970988;29;96995;-63
2023/05/13 07:20:57;;;;;;;;;6.20;6.00;;;;;22.40;34.60;99337.41;5955754;29;96739;-62
2023/05/13 07:24:01;;;;;;;;;6.00;5.20;;;;;22.63;34.78;99344.06;5961416;29;96380;-62
2023/05/13 07:27:04;;;;;;;;;9.00;8.00;;;;;22.80;34.32;99341.75;5969994;29;97550;-63
2023/05/13 07:30:09;;;;;;;;;8.00;8.00;;;;;23.06;33.85;99346.97;5974251;29;96460;-62
2023/05/13 07:33:14;;;;;;;;;7.40;7.40;;;;;23.11;33.33;99334.00;5992487;29;96291;-61
2023/05/13 07:36:17;;;;;;;;;7.60;7.60;;;;;23.26;33.85;99341.25;5991176;29;96272;-62
2023/05/13 07:39:21;;;;;;;;;10.00;9.00;;;;;23.32;32.79;99335.38;5971974;29;96398;-62
2023/05/13 07:42:24;;;;;;;;;9.00;9.00;;;;;23.56;33.64;99342.78;5974022;29;96572;-62
2023/05/13 07:45:28;;;;;;;;;9.00;8.00;;;;;23.21;32.42;99360.56;5973330;29;96340;-62
2023/05/13 07:48:33;;;;;;;;;7.50;7.50;;;;;23.29;32.81;99357.16;5973248;29;96132;-62
2023/05/13 07:51:36;;;;;;;;;7.80;7.00;;;;;23.24;33.95;99363.53;5974443;29;96524;-62
2023/05/13 07:54:39;;;;;;;;;9.00;8.80;;;;;23.46;33.46;99348.44;5986488;29;97054;-62
2023/05/13 07:57:43;;;;;;;;;8.00;7.00;;;;;23.43;32.02;99340.75;5973104;29;96984;-62
2023/05/13 08:00:48;;;;;;;;;8.00;7.60;;;;;23.80;33.36;99340.00;5972826;29;96326;-62
2023/05/13 08:03:53;;;;;;;;;9.00;8.00;;;;;24.38;32.10;99343.25;5957072;29;98694;-62
2023/05/13 08:06:56;;;;;;;;;10.20;9.80;;;;;24.86;30.83;99347.38;5966657;29;96988;-62
2023/05/13 08:09:59;;;;;;;;;9.00;9.00;;;;;24.54;28.98;99345.44;5969468;29;96796;-62
2023/05/13 08:13:03;;;;;;;;;7.00;6.00;;;;;24.82;29.84;99346.34;5956779;29;98374;-62
2023/05/13 08:16:07;;;;;;;;;8.00;7.00;;;;;24.83;29.56;99338.84;5955956;29;96304;-62
2023/05/13 08:19:13;;;;;;;;;7.00;6.00;;;;;24.60;29.82;99344.25;5973503;29;97516;-62
2023/05/13 08:22:16;;;;;;;;;8.00;8.00;;;;;24.43;29.97;99340.44;5956552;29;96774;-62
2023/05/13 08:25:20;;;;;;;;;8.00;8.00;;;;;24.46;30.73;99342.56;5955573;29;96580;-62
2023/05/13 08:28:25;;;;;;;;;9.40;9.00;;;;;24.63;30.04;99344.78;5929697;29;97824;-63
2023/05/13 08:31:29;;;;;;;;;5.50;5.50;;;;;24.70;28.06;99351.50;5969155;29;96767;-63
2023/05/13 08:34:33;;;;;;;;;7.00;7.00;;;;;24.39;28.24;99345.69;5972828;29;96314;-62
2023/05/13 08:37:37;;;;;;;;;7.50;7.00;;;;;24.26;27.13;99342.91;5973288;29;96407;-62
2023/05/13 08:40:42;;;;;;;;;7.00;7.00;;;;;24.69;28.84;99340.78;5973495;29;96620;-62
2023/05/13 08:43:47;;;;;;;;;6.60;6.60;;;;;24.48;28.24;99327.34;5973175;29;96303;-62
2023/05/13 08:47:00;;;;;;;;;8.60;8.60;;;;;24.39;28.47;99331.91;5955948;29;96392;-62
2023/05/13 08:50:06;;;;;;;;;8.00;7.00;;;;;24.44;28.88;99322.75;5950830;29;96553;-62
2023/05/13 08:53:12;;;;;;;;;6.20;6.20;;;;;24.63;28.38;99334.53;5954569;29;96388;-62
2023/05/13 08:56:15;;;;;;;;;8.75;7.00;;;;;24.41;29.11;99328.88;5967184;29;96628;-63
2023/05/13 08:59:18;;;;;;;;;6.00;6.00;;;;;24.71;30.50;99333.03;5976496;29;96314;-63
2023/05/13 09:02:22;;;;;;;;;9.75;9.00;;;;;25.18;29.70;99318.06;5977320;29;96344;-61
2023/05/13 09:05:27;;;;;;;;;6.50;6.50;;;;;25.25;28.18;99329.53;5975915;29;96458;-62
2023/05/13 09:08:32;;;;;;;;;8.00;8.00;;;;;25.44;27.98;99321.94;5975884;29;96293;-62
2023/05/13 09:11:35;;;;;;;;;7.80;6.20;;;;;25.73;28.33;99316.91;5975714;29;96754;-62
2023/05/13 09:14:39;;;;;;;;;6.40;6.00;;;;;25.83;24.88;99324.16;5975925;29;96921;-62
2023/05/13 09:17:44;;;;;;;;;4.25;4.25;;;;;25.91;25.01;99333.63;5967314;29;96494;-62
2023/05/13 09:20:49;;;;;;;;;7.00;7.00;;;;;26.04;27.00;99328.09;5936953;29;96433;-62
2023/05/13 09:24:01;;;;;;;;;6.80;6.80;;;;;26.37;26.56;99327.84;5970268;29;96355;-62
2023/05/13 09:27:05;;;;;;;;;5.25;5.25;;;;;26.26;25.92;99321.75;5974437;29;97037;-62
2023/05/13 09:30:10;;;;;;;;;9.00;9.00;;;;;26.59;26.80;99301.00;5959721;29;97182;-60
2023/05/13 09:33:14;;;;;;;;;5.40;5.40;;;;;26.66;27.94;99298.59;5976019;29;96417;-60
2023/05/13 09:36:19;;;;;;;;;6.00;6.00;;;;;26.70;26.86;99315.38;5975444;29;96314;-61
2023/05/13 09:39:23;;;;;;;;;5.00;5.00;;;;;26.55;26.39;99307.47;5975025;29;96272;-60
2023/05/13 09:42:26;;;;;;;;;7.00;6.00;;;;;26.46;26.93;99303.84;5958161;29;97256;-60
2023/05/13 09:45:30;;;;;;;;;5.00;5.00;;;;;25.79;23.39;99306.56;5974993;29;96264;-60
2023/05/13 09:48:36;;;;;;;;;6.60;6.60;;;;;25.01;24.32;99313.19;5975124;29;98503;-60
2023/05/13 09:51:43;;;;;;;;;7.00;6.00;;;;;24.55;24.85;99307.66;5969517;29;96293;-60
2023/05/13 09:54:47;;;;;;;;;6.00;5.00;;;;;24.77;25.94;99309.75;5968914;29;96870;-60
2023/05/13 09:57:50;;;;;;;;;6.00;6.00;;;;;24.46;25.30;99303.97;5974439;29;96385;-61
2023/05/13 10:00:53;;;;;;;;;8.00;7.60;;;;;24.13;24.93;99295.69;5973696;29;96418;-60
2023/05/13 10:03:58;;;;;;;;;6.50;6.25;;;;;23.87;25.49;99299.13;5974047;29;96613;-60
2023/05/13 10:07:04;;;;;;;;;6.00;6.00;;;;;24.03;26.46;99312.38;5974221;29;96249;-62
2023/05/13 10:10:10;;;;;;;;;5.40;5.00;;;;;23.56;26.45;99302.31;5948585;29;96899;-61
2023/05/13 10:13:15;;;;;;;;;5.00;5.00;;;;;23.53;27.28;99302.09;5934096;29;96391;-61
2023/05/13 10:16:19;;;;;;;;;8.00;8.00;;;;;23.43;26.98;99296.72;5950314;29;97017;-61
2023/05/13 10:19:24;;;;;;;;;5.00;5.00;;;;;23.86;27.11;99297.50;5968186;29;97377;-60
2023/05/13 10:22:31;;;;;;;;;8.50;8.50;;;;;24.36;27.17;99295.88;5973707;29;96533;-60
2023/05/13 10:25:34;;;;;;;;;6.50;6.00;;;;;24.97;26.82;99292.84;5975168;29;96626;-60
2023/05/13 10:28:38;;;;;;;;;8.00;8.00;;;;;24.95;25.62;99293.16;5958398;29;97716;-60
2023/05/13 10:31:42;;;;;;;;;6.75;6.75;;;;;25.24;25.34;99292.00;5974804;29;96416;-60
2023/05/13 10:34:46;;;;;;;;;6.00;5.40;;;;;25.24;26.20;99278.22;5974447;29;97499;-60
2023/05/13 10:38:07;;;;;;;;;5.40;5.40;;;;;25.37;25.79;99289.22;5974203;29;96691;-60
2023/05/13 10:41:19;;;;;;;;;7.00;7.00;;;;;25.29;25.02;99283.63;5974258;29;96314;-60
2023/05/13 10:44:23;;;;;;;;;5.00;5.00;;;;;25.22;25.42;99275.75;5974808;29;96476;-60
2023/05/13 10:47:27;;;;;;;;;7.00;6.00;;;;;25.33;25.43;99285.47;5974609;29;96409;-60
2023/05/13 10:50:31;;;;;;;;;6.00;6.00;;;;;24.89;25.25;99286.09;5971409;29;96523;-60
2023/05/13 10:53:43;;;;;;;;;7.00;6.20;;;;;25.11;25.33;99290.91;5974406;29;96760;-60
2023/05/13 10:56:56;;;;;;;;;6.80;6.80;;;;;24.85;26.35;99287.81;5974737;29;96451;-60
2023/05/13 11:00:17;;;;;;;;;6.00;6.00;;;;;25.23;26.83;99282.09;5973223;29;97304;-59
2023/05/13 11:03:30;;;;;;;;;6.00;5.25;;;;;25.26;25.56;99276.81;5974566;29;96412;-60
2023/05/13 11:06:35;;;;;;;;;7.00;7.00;;;;;25.53;25.94;99273.16;5974659;29;96459;-60
2023/05/13 11:09:40;;;;;;;;;6.00;6.00;;;;;25.65;24.84;99284.53;5973183;29;96415;-60
2023/05/13 11:13:07;;;;;;;;;7.00;7.00;;;;;26.36;23.92;99271.75;5972738;29;96795;-59
2023/05/13 11:16:13;;;;;;;;;9.00;8.00;;;;;26.89;23.60;99266.19;5972179;29;96378;-61
2023/05/13 11:19:21;;;;;;;;;6.00;6.00;;;;;27.05;24.28;99270.16;5969466;29;96368;-62
2023/05/13 11:22:24;;;;;;;;;6.60;6.60;;;;;27.41;24.18;99252.50;5936857;29;97245;-61
2023/05/13 11:25:29;;;;;;;;;7.00;7.00;;;;;27.86;22.49;99255.78;5973154;29;97552;-60
2023/05/13 11:28:58;;;;;;;;;6.67;6.67;;;;;27.61;22.63;99259.38;5955865;29;96711;-60
2023/05/13 11:32:02;;;;;;;;;7.00;6.60;;;;;26.61;22.56;99265.56;5969664;29;96589;-60
2023/05/13 11:35:06;;;;;;;;;6.50;6.50;;;;;26.12;23.21;99272.06;5961415;29;97627;-62
2023/05/13 11:38:22;;;;;;;;;9.00;9.00;;;;;25.12;24.97;99273.22;5966656;29;96475;-61
2023/05/13 11:41:31;;;;;;;;;8.00;8.00;;;;;24.87;24.21;99271.81;5928604;29;96474;-61
2023/05/13 11:44:35;;;;;;;;;6.40;6.00;;;;;24.94;25.18;99274.97;5928374;29;96286;-60
2023/05/13 11:47:38;;;;;;;;;7.00;6.40;;;;;24.83;25.54;99280.94;5945292;29;96817;-60
2023/05/13 11:50:41;;;;;;;;;7.00;7.00;;;;;24.75;26.42;99267.88;5949788;29;96285;-64
2023/05/13 11:53:45;;;;;;;;;7.00;7.00;;;;;24.80;25.95;99278.81;5950979;29;96650;-64
2023/05/13 11:56:50;;;;;;;;;6.40;6.40;;;;;24.43;25.86;99294.38;5950351;29;96439;-64
2023/05/13 11:59:55;;;;;;;;;7.00;7.00;;;;;23.73;26.15;99268.78;5931329;29;96377;-64
2023/05/13 12:02:59;;;;;;;;;5.00;5.00;;;;;24.07;26.73;99274.03;5925625;29;96941;-64
2023/05/13 12:06:04;;;;;;;;;6.75;5.75;;;;;23.57;27.08;99279.19;5950472;29;96429;-64
2023/05/13 12:09:08;;;;;;;;;5.00;5.00;;;;;23.61;27.55;99271.97;5950454;29;96405;-64
2023/05/13 12:12:13;;;;;;;;;9.50;9.00;;;;;23.81;28.82;99278.28;5949521;29;96104;-63
2023/05/13 12:15:20;;;;;;;;;7.40;6.80;;;;;24.16;27.87;99275.81;5947723;29;96662;-63
2023/05/13 12:18:23;;;;;;;;;6.00;5.40;;;;;24.00;26.71;99268.06;5941150;29;97002;-64
2023/05/13 12:21:32;;;;;;;;;5.60;5.60;;;;;23.82;27.12;99268.91;5937332;29;97647;-64
2023/05/13 12:24:35;;;;;;;;;6.00;6.00;;;;;23.78;27.46;99278.91;5945517;29;96321;-64
2023/05/13 12:27:40;;;;;;;;;6.00;6.00;;;;;23.30;27.62;99276.25;5949685;29;96488;-63
2023/05/13 12:30:50;;;;;;;;;9.25;9.00;;;;;23.12;28.40;99269.59;5931111;29;96287;-64
2023/05/13 12:33:53;;;;;;;;;9.00;8.40;;;;;23.02;28.72;99269.72;5914405;29;96705;-64
2023/05/13 12:36:56;;;;;;;;;7.00;7.00;;;;;23.18;28.94;99273.94;5931152;29;96365;-63
2023/05/13 12:40:10;;;;;;;;;8.80;8.00;;;;;22.80;28.34;99296.94;5948980;29;96411;-64
2023/05/13 12:43:16;;;;;;;;;9.00;9.00;;;;;22.69;28.92;99279.69;5952624;29;96983;-64
2023/05/13 12:46:20;;;;;;;;;7.67;7.00;;;;;22.46;28.97;99278.56;5953077;29;96384;-63
2023/05/13 12:49:23;;;;;;;;;8.00;7.00;;;;;22.44;30.04;99279.94;5944503;29;97327;-63
2023/05/13 12:52:27;;;;;;;;;8.80;8.80;;;;;22.60;29.31;99273.19;5952097;29;96434;-63
2023/05/13 12:55:30;;;;;;;;;7.00;6.00;;;;;22.34;29.16;99274.56;5951400;29;96760;-63
2023/05/13 12:58:35;;;;;;;;;8.60;8.00;;;;;22.34;29.73;99285.53;5949903;29;96431;-64
2023/05/13 13:01:38;;;;;;;;;6.00;5.00;;;;;22.41;29.34;99284.13;5948575;29;96491;-64
2023/05/13 13:04:42;;;;;;;;;7.40;6.60;;;;;22.31;29.01;99278.72;5941262;29;97242;-63
2023/05/13 13:07:45;;;;;;;;;6.00;5.25;;;;;22.39;29.14;99280.00;5951431;29;96892;-64
2023/05/13 13:10:48;;;;;;;;;5.00;5.00;;;;;22.48;29.44;99283.75;5928486;29;97125;-63
2023/05/13 13:13:53;;;;;;;;;8.00;7.00;;;;;22.29;30.17;99275.44;5951963;29;97056;-64
2023/05/13 13:16:56;;;;;;;;;7.00;7.00;;;;;22.32;29.48;99283.09;5964203;29;96676;-64
2023/05/13 13:20:00;;;;;;;;;4.50;4.50;;;;;21.97;29.66;99264.19;5943902;29;97944;-63
2023/05/13 13:23:03;;;;;;;;;6.20;6.20;;;;;21.98;29.91;99291.38;5932480;29;96871;-64
2023/05/13 13:26:07;;;;;;;;;6.20;6.00;;;;;22.06;30.31;99287.16;5951682;29;97112;-64
2023/05/13 13:29:12;;;;;;;;;7.60;7.00;;;;;22.40;30.00;99289.88;5951041;29;96924;-64
2023/05/13 13:32:15;;;;;;;;;6.00;5.00;;;;;21.91;29.72;99284.50;5947326;29;96836;-64
2023/05/13 13:35:18;;;;;;;;;5.80;5.80;;;;;22.13;29.96;99281.34;5953854;29;96541;-63
2023/05/13 13:38:22;;;;;;;;;4.00;4.00;;;;;22.26;30.42;99289.75;5957781;29;96435;-64
2023/05/13 13:41:25;;;;;;;;;6.40;6.40;;;;;22.35;29.55;99284.44;5976847;29;96224;-64
2023/05/13 13:44:30;;;;;;;;;6.00;6.00;;;;;22.13;29.26;99287.69;5981593;29;98113;-65
2023/05/13 13:47:33;;;;;;;;;6.50;6.50;;;;;22.07;29.38;99288.00;5980645;29;96369;-64
2023/05/13 13:50:37;;;;;;;;;7.40;7.00;;;;;21.98;30.17;99285.88;5972443;29;96415;-63
2023/05/13 13:53:40;;;;;;;;;9.33;9.00;;;;;22.08;30.97;99289.63;5990240;29;96319;-63
2023/05/13 13:56:43;;;;;;;;;5.20;5.20;;;;;21.67;30.36;99289.06;5983135;29;96446;-63
2023/05/13 13:59:48;;;;;;;;;7.00;7.00;;;;;21.73;30.81;99290.69;5984655;29;96476;-64
2023/05/13 14:02:51;;;;;;;;;8.50;7.50;;;;;21.42;31.16;99288.13;5982685;29;96399;-64
2023/05/13 14:05:56;;;;;;;;;11.00;10.00;;;;;21.64;31.32;99284.16;5986179;29;97043;-63
2023/05/13 14:08:59;;;;;;;;;9.00;8.00;;;;;21.84;30.99;99303.25;5971416;29;97245;-63
2023/05/13 14:12:02;;;;;;;;;8.00;7.00;;;;;21.73;31.66;99301.66;5972954;29;96330;-63
2023/05/13 14:15:08;;;;;;;;;9.00;9.00;;;;;21.81;31.17;99299.13;5972776;29;96918;-65
2023/05/13 14:18:11;;;;;;;;;10.00;9.25;;;;;21.26;31.17;99272.84;5970844;29;97791;-65
2023/05/13 14:21:15;;;;;;;;;11.75;11.25;;;;;21.43;31.00;99306.22;5974680;29;96509;-65